RJA131 OJAI-LGAV
Flight info
| Callsign | RJA131 |
|---|---|
| Flight time | 1h 59m |
| Altitude | 36000 |
| Route | MUVIN L53 SUVAS N128 OTHON DCT LINRO DCT RIPLI UL995 VARIX |
| Aircraft | A320/M-SDE3FGHIRWY/LB1 |
Departure
| Time | 2026-05-05 07:22 |
|---|---|
| Airport | Queen Alia International Airport (OJAI) |
Arrival
| Time | 2026-05-05 09:21 |
|---|---|
| Airport | Athens Eleftherios Venizelos International Airport (LGAV) |
| Time | Latitude | Longitude | Altitude | Speed | Heading |
|---|---|---|---|---|---|
| 2026-05-05 06:28 | 31.72089 | 35.98945 | 2412 ft | 0 kts | 350° |
| 2026-05-05 07:07 | 31.72069 | 35.98949 | 2411 ft | 4 kts | 352° |
| 2026-05-05 07:07 | 31.72042 | 35.98953 | 2411 ft | 4 kts | 357° |
| 2026-05-05 07:07 | 31.72016 | 35.98952 | 2411 ft | 4 kts | 15° |
| 2026-05-05 07:08 | 31.71997 | 35.98939 | 2411 ft | 2 kts | 78° |
| 2026-05-05 07:08 | 31.71997 | 35.98937 | 2411 ft | 0 kts | 80° |
| 2026-05-05 07:11 | 31.71999 | 35.98952 | 2411 ft | 4 kts | 80° |
| 2026-05-05 07:11 | 31.72005 | 35.98995 | 2411 ft | 7 kts | 80° |
| 2026-05-05 07:11 | 31.72015 | 35.99057 | 2411 ft | 9 kts | 79° |
| 2026-05-05 07:12 | 31.72024 | 35.99124 | 2411 ft | 8 kts | 81° |
| 2026-05-05 07:12 | 31.72028 | 35.99155 | 2411 ft | 2 kts | 78° |
| 2026-05-05 07:12 | 31.72037 | 35.99175 | 2411 ft | 4 kts | 63° |
| 2026-05-05 07:12 | 31.72053 | 35.99213 | 2411 ft | 6 kts | 68° |
| 2026-05-05 07:13 | 31.72069 | 35.99273 | 2411 ft | 9 kts | 78° |
| 2026-05-05 07:13 | 31.72081 | 35.99356 | 2411 ft | 12 kts | 79° |
| 2026-05-05 07:13 | 31.72095 | 35.99454 | 2411 ft | 4 kts | 80° |
| 2026-05-05 07:13 | 31.72107 | 35.99469 | 2411 ft | 3 kts | 13° |
| 2026-05-05 07:14 | 31.72142 | 35.99474 | 2411 ft | 7 kts | 351° |
| 2026-05-05 07:14 | 31.72200 | 35.99463 | 2411 ft | 10 kts | 351° |
| 2026-05-05 07:14 | 31.72279 | 35.99447 | 2411 ft | 13 kts | 351° |
| 2026-05-05 07:14 | 31.72379 | 35.99428 | 2411 ft | 16 kts | 350° |
| 2026-05-05 07:15 | 31.72501 | 35.99403 | 2411 ft | 19 kts | 349° |
| 2026-05-05 07:15 | 31.72618 | 35.99376 | 2411 ft | 9 kts | 352° |
| 2026-05-05 07:15 | 31.72633 | 35.99374 | 2411 ft | 2 kts | 352° |
| 2026-05-05 07:15 | 31.72661 | 35.99370 | 2411 ft | 6 kts | 354° |
| 2026-05-05 07:16 | 31.72715 | 35.99364 | 2411 ft | 9 kts | 2° |
| 2026-05-05 07:16 | 31.72744 | 35.99380 | 2411 ft | 2 kts | 84° |
| 2026-05-05 07:16 | 31.72747 | 35.99411 | 2411 ft | 6 kts | 81° |
| 2026-05-05 07:16 | 31.72752 | 35.99446 | 2411 ft | 8 kts | 80° |
| 2026-05-05 07:17 | 31.72763 | 35.99523 | 2411 ft | 11 kts | 81° |
| 2026-05-05 07:17 | 31.72778 | 35.99627 | 2411 ft | 15 kts | 80° |
| 2026-05-05 07:17 | 31.72797 | 35.99758 | 2411 ft | 18 kts | 81° |
| 2026-05-05 07:17 | 31.72825 | 35.99973 | 2411 ft | 19 kts | 80° |
| 2026-05-05 07:18 | 31.72848 | 36.00122 | 2411 ft | 15 kts | 78° |
| 2026-05-05 07:18 | 31.72871 | 36.00254 | 2411 ft | 18 kts | 79° |
| 2026-05-05 07:18 | 31.72885 | 36.00359 | 2411 ft | 20 kts | 82° |
| 2026-05-05 07:18 | 31.72905 | 36.00527 | 2411 ft | 21 kts | 80° |
| 2026-05-05 07:19 | 31.72932 | 36.00707 | 2411 ft | 17 kts | 78° |
| 2026-05-05 07:19 | 31.72957 | 36.00779 | 2411 ft | 9 kts | 30° |
| 2026-05-05 07:19 | 31.73004 | 36.00791 | 2411 ft | 6 kts | 349° |
| 2026-05-05 07:19 | 31.73058 | 36.00780 | 2411 ft | 9 kts | 351° |
| 2026-05-05 07:20 | 31.73132 | 36.00767 | 2411 ft | 12 kts | 351° |
| 2026-05-05 07:20 | 31.73208 | 36.00753 | 2411 ft | 1 kts | 351° |
| 2026-05-05 07:20 | 31.73216 | 36.00749 | 2411 ft | 1 kts | 303° |
| 2026-05-05 07:20 | 31.73216 | 36.00740 | 2411 ft | 2 kts | 267° |
| 2026-05-05 07:21 | 31.73210 | 36.00693 | 2411 ft | 12 kts | 261° |
| 2026-05-05 07:21 | 31.73159 | 36.00336 | 2412 ft | 77 kts | 260° |
| 2026-05-05 07:21 | 31.73033 | 35.99479 | 2412 ft | 131 kts | 260° |
| 2026-05-05 07:21 | 31.72837 | 35.98231 | 2621 ft | 155 kts | 258° |
| 2026-05-05 07:22 | 31.72597 | 35.97000 | 3215 ft | 154 kts | 258° |
| 2026-05-05 07:22 | 31.72425 | 35.95730 | 3785 ft | 159 kts | 262° |
| 2026-05-05 07:22 | 31.72275 | 35.94427 | 4261 ft | 167 kts | 262° |
| 2026-05-05 07:22 | 31.72085 | 35.92980 | 4608 ft | 183 kts | 261° |
| 2026-05-05 07:23 | 31.71869 | 35.91440 | 4920 ft | 202 kts | 261° |
| 2026-05-05 07:23 | 31.71625 | 35.89745 | 5341 ft | 219 kts | 261° |
| 2026-05-05 07:23 | 31.71361 | 35.87937 | 5812 ft | 236 kts | 261° |
| 2026-05-05 07:23 | 31.71074 | 35.85984 | 6380 ft | 248 kts | 260° |
| 2026-05-05 07:24 | 31.70779 | 35.83966 | 7114 ft | 252 kts | 261° |
| 2026-05-05 07:24 | 31.70515 | 35.81922 | 7908 ft | 255 kts | 266° |
| 2026-05-05 07:24 | 31.70704 | 35.79844 | 8660 ft | 259 kts | 285° |
| 2026-05-05 07:24 | 31.71446 | 35.77899 | 9431 ft | 263 kts | 294° |
| 2026-05-05 07:25 | 31.72340 | 35.75982 | 10185 ft | 265 kts | 295° |
| 2026-05-05 07:25 | 31.73235 | 35.74050 | 10780 ft | 273 kts | 293° |
| 2026-05-05 07:25 | 31.74118 | 35.72047 | 11374 ft | 279 kts | 292° |
| 2026-05-05 07:25 | 31.75005 | 35.69979 | 11862 ft | 288 kts | 291° |
| 2026-05-05 07:26 | 31.75930 | 35.67794 | 12028 ft | 307 kts | 291° |
| 2026-05-05 07:26 | 31.76894 | 35.65517 | 12027 ft | 314 kts | 292° |
| 2026-05-05 07:26 | 31.77884 | 35.63196 | 12027 ft | 321 kts | 291° |
| 2026-05-05 07:26 | 31.78889 | 35.60847 | 12019 ft | 321 kts | 292° |
| 2026-05-05 07:27 | 31.79893 | 35.58500 | 12015 ft | 321 kts | 292° |
| 2026-05-05 07:27 | 31.80884 | 35.56184 | 12010 ft | 322 kts | 292° |
| 2026-05-05 07:27 | 31.81934 | 35.53850 | 12016 ft | 323 kts | 294° |
| 2026-05-05 07:27 | 31.82896 | 35.51464 | 12030 ft | 319 kts | 286° |
| 2026-05-05 07:28 | 31.83574 | 35.48997 | 12397 ft | 320 kts | 283° |
| 2026-05-05 07:28 | 31.84205 | 35.46478 | 13017 ft | 322 kts | 282° |
| 2026-05-05 07:28 | 31.84837 | 35.43937 | 13625 ft | 324 kts | 282° |
| 2026-05-05 07:28 | 31.85486 | 35.41389 | 14239 ft | 326 kts | 283° |
| 2026-05-05 07:29 | 31.86152 | 35.38830 | 14804 ft | 327 kts | 283° |
| 2026-05-05 07:29 | 31.86871 | 35.36279 | 15074 ft | 329 kts | 284° |
| 2026-05-05 07:29 | 31.87626 | 35.33743 | 15085 ft | 328 kts | 285° |
| 2026-05-05 07:29 | 31.88389 | 35.31216 | 15089 ft | 328 kts | 285° |
| 2026-05-05 07:30 | 31.89154 | 35.28685 | 15087 ft | 328 kts | 285° |
| 2026-05-05 07:30 | 31.90668 | 35.23628 | 15083 ft | 328 kts | 284° |
| 2026-05-05 07:30 | 31.91422 | 35.21084 | 15077 ft | 329 kts | 284° |
| 2026-05-05 07:31 | 31.92169 | 35.18541 | 15073 ft | 328 kts | 285° |
| 2026-05-05 07:31 | 31.92916 | 35.16003 | 15074 ft | 328 kts | 285° |
| 2026-05-05 07:31 | 31.93665 | 35.13465 | 15068 ft | 328 kts | 285° |
| 2026-05-05 07:31 | 31.94416 | 35.10926 | 15062 ft | 328 kts | 285° |
| 2026-05-05 07:32 | 31.95165 | 35.08387 | 15070 ft | 328 kts | 285° |
| 2026-05-05 07:32 | 31.95914 | 35.05849 | 15058 ft | 328 kts | 285° |
| 2026-05-05 07:32 | 31.96672 | 35.03278 | 15056 ft | 328 kts | 285° |
| 2026-05-05 07:32 | 31.97419 | 35.00745 | 15050 ft | 328 kts | 285° |
| 2026-05-05 07:33 | 31.98161 | 34.98242 | 15045 ft | 328 kts | 285° |
| 2026-05-05 07:33 | 31.98909 | 34.95706 | 15043 ft | 327 kts | 285° |
| 2026-05-05 07:33 | 31.99653 | 34.93167 | 15043 ft | 327 kts | 285° |
| 2026-05-05 07:33 | 32.00395 | 34.90634 | 15044 ft | 328 kts | 285° |
| 2026-05-05 07:34 | 32.01095 | 34.88036 | 15041 ft | 327 kts | 281° |
| 2026-05-05 07:34 | 32.01476 | 34.85402 | 15049 ft | 325 kts | 274° |
| 2026-05-05 07:34 | 32.01642 | 34.82740 | 15053 ft | 326 kts | 271° |
| 2026-05-05 07:34 | 32.01754 | 34.80112 | 15055 ft | 324 kts | 271° |
| 2026-05-05 07:35 | 32.01866 | 34.77455 | 15057 ft | 324 kts | 271° |
| 2026-05-05 07:35 | 32.01997 | 34.74799 | 15063 ft | 325 kts | 272° |
| 2026-05-05 07:35 | 32.02145 | 34.72140 | 15061 ft | 324 kts | 272° |
| 2026-05-05 07:35 | 32.02297 | 34.69486 | 15300 ft | 326 kts | 272° |
| 2026-05-05 07:36 | 32.02449 | 34.66807 | 15813 ft | 329 kts | 272° |
| 2026-05-05 07:36 | 32.02598 | 34.64114 | 16377 ft | 330 kts | 272° |
| 2026-05-05 07:36 | 32.02753 | 34.61340 | 16951 ft | 331 kts | 272° |
| 2026-05-05 07:36 | 32.02903 | 34.58628 | 17505 ft | 332 kts | 272° |
| 2026-05-05 07:37 | 32.03051 | 34.55902 | 18049 ft | 333 kts | 271° |
| 2026-05-05 07:37 | 32.03195 | 34.53172 | 18580 ft | 334 kts | 271° |
| 2026-05-05 07:37 | 32.03340 | 34.50420 | 19079 ft | 336 kts | 271° |
| 2026-05-05 07:37 | 32.03492 | 34.47660 | 19558 ft | 339 kts | 271° |
| 2026-05-05 07:38 | 32.03653 | 34.44880 | 20036 ft | 341 kts | 271° |
| 2026-05-05 07:38 | 32.03816 | 34.42086 | 20498 ft | 342 kts | 271° |
| 2026-05-05 07:38 | 32.03976 | 34.39284 | 20958 ft | 344 kts | 271° |
| 2026-05-05 07:38 | 32.04133 | 34.36458 | 21402 ft | 346 kts | 271° |
| 2026-05-05 07:39 | 32.04290 | 34.33621 | 21828 ft | 348 kts | 271° |
| 2026-05-05 07:39 | 32.04449 | 34.30769 | 22250 ft | 349 kts | 271° |
| 2026-05-05 07:39 | 32.04604 | 34.27905 | 22656 ft | 351 kts | 271° |
| 2026-05-05 07:39 | 32.04876 | 34.25028 | 23065 ft | 355 kts | 276° |
| 2026-05-05 07:40 | 32.05499 | 34.22189 | 23431 ft | 361 kts | 284° |
| 2026-05-05 07:40 | 32.06155 | 34.20342 | 23678 ft | 367 kts | 290° |
| 2026-05-05 07:40 | 32.07433 | 34.17694 | 24015 ft | 371 kts | 294° |
| 2026-05-05 07:40 | 32.08804 | 34.15107 | 24055 ft | 372 kts | 295° |
| 2026-05-05 07:41 | 32.10180 | 34.12534 | 24057 ft | 371 kts | 295° |
| 2026-05-05 07:41 | 32.11536 | 34.09944 | 24055 ft | 370 kts | 294° |
| 2026-05-05 07:41 | 32.12863 | 34.07344 | 24056 ft | 370 kts | 294° |
| 2026-05-05 07:41 | 32.14177 | 34.04732 | 24232 ft | 371 kts | 294° |
| 2026-05-05 07:42 | 32.15494 | 34.02099 | 24572 ft | 373 kts | 294° |
| 2026-05-05 07:42 | 32.16833 | 33.99466 | 24907 ft | 377 kts | 295° |
| 2026-05-05 07:42 | 32.18322 | 33.96884 | 25205 ft | 382 kts | 298° |
| 2026-05-05 07:42 | 32.19868 | 33.94323 | 25522 ft | 384 kts | 298° |
| 2026-05-05 07:43 | 32.21417 | 33.91803 | 26132 ft | 377 kts | 298° |
| 2026-05-05 07:43 | 32.22952 | 33.89301 | 26751 ft | 371 kts | 298° |
| 2026-05-05 07:43 | 32.24452 | 33.86824 | 27191 ft | 370 kts | 297° |
| 2026-05-05 07:43 | 32.25943 | 33.84328 | 27471 ft | 373 kts | 297° |
| 2026-05-05 07:44 | 32.27451 | 33.81801 | 27607 ft | 379 kts | 297° |
| 2026-05-05 07:44 | 32.28982 | 33.79247 | 27869 ft | 382 kts | 298° |
| 2026-05-05 07:44 | 32.30532 | 33.76672 | 28043 ft | 387 kts | 298° |
| 2026-05-05 07:44 | 32.32127 | 33.74024 | 28163 ft | 394 kts | 298° |
| 2026-05-05 07:45 | 32.33725 | 33.71358 | 28295 ft | 399 kts | 298° |
| 2026-05-05 07:45 | 32.35313 | 33.68702 | 28496 ft | 402 kts | 298° |
| 2026-05-05 07:45 | 32.36937 | 33.65990 | 28751 ft | 405 kts | 298° |
| 2026-05-05 07:45 | 32.38587 | 33.63240 | 29007 ft | 407 kts | 298° |
| 2026-05-05 07:46 | 32.40228 | 33.60501 | 29243 ft | 409 kts | 298° |
| 2026-05-05 07:46 | 32.41877 | 33.57744 | 29489 ft | 410 kts | 298° |
| 2026-05-05 07:46 | 32.43528 | 33.54981 | 29765 ft | 411 kts | 298° |
| 2026-05-05 07:46 | 32.45175 | 33.52221 | 30106 ft | 410 kts | 298° |
| 2026-05-05 07:47 | 32.46821 | 33.49461 | 30396 ft | 410 kts | 298° |
| 2026-05-05 07:47 | 32.48470 | 33.46697 | 30711 ft | 410 kts | 298° |
| 2026-05-05 07:47 | 32.50115 | 33.43947 | 31034 ft | 409 kts | 298° |
| 2026-05-05 07:47 | 32.51741 | 33.41228 | 31396 ft | 407 kts | 298° |
| 2026-05-05 07:48 | 32.53382 | 33.38475 | 31657 ft | 407 kts | 298° |
| 2026-05-05 07:48 | 32.55011 | 33.35721 | 32001 ft | 406 kts | 298° |
| 2026-05-05 07:48 | 32.56629 | 33.32981 | 32306 ft | 405 kts | 298° |
| 2026-05-05 07:48 | 32.58241 | 33.30246 | 32618 ft | 404 kts | 298° |
| 2026-05-05 07:49 | 32.59818 | 33.27549 | 32933 ft | 403 kts | 298° |
| 2026-05-05 07:49 | 32.61457 | 33.24790 | 33245 ft | 402 kts | 298° |
| 2026-05-05 07:49 | 32.63093 | 33.22098 | 33561 ft | 401 kts | 298° |
| 2026-05-05 07:49 | 32.64697 | 33.19407 | 33837 ft | 400 kts | 298° |
| 2026-05-05 07:50 | 32.65406 | 33.18213 | 33962 ft | 400 kts | 298° |
| 2026-05-05 07:50 | 32.66998 | 33.15505 | 34210 ft | 399 kts | 298° |
| 2026-05-05 07:50 | 32.68582 | 33.12794 | 34439 ft | 399 kts | 298° |
| 2026-05-05 07:50 | 32.70179 | 33.10070 | 34643 ft | 400 kts | 298° |
| 2026-05-05 07:51 | 32.71772 | 33.07367 | 34938 ft | 398 kts | 299° |
| 2026-05-05 07:51 | 32.73370 | 33.04666 | 35282 ft | 395 kts | 299° |
| 2026-05-05 07:51 | 32.74929 | 33.02032 | 35606 ft | 392 kts | 299° |
| 2026-05-05 07:51 | 32.76510 | 32.99362 | 35938 ft | 388 kts | 299° |
| 2026-05-05 07:52 | 32.78059 | 32.96725 | 36054 ft | 391 kts | 298° |
| 2026-05-05 07:52 | 32.79622 | 32.94062 | 36045 ft | 395 kts | 299° |
| 2026-05-05 07:52 | 32.82809 | 32.88625 | 36027 ft | 400 kts | 299° |
| 2026-05-05 07:53 | 32.85988 | 32.83189 | 36024 ft | 400 kts | 299° |
| 2026-05-05 07:53 | 32.89168 | 32.77748 | 36023 ft | 400 kts | 299° |
| 2026-05-05 07:54 | 32.92346 | 32.72307 | 36028 ft | 400 kts | 299° |
| 2026-05-05 07:54 | 32.95507 | 32.66914 | 36021 ft | 400 kts | 299° |
| 2026-05-05 07:55 | 32.98675 | 32.61481 | 35992 ft | 399 kts | 299° |
| 2026-05-05 07:55 | 33.01835 | 32.56041 | 35986 ft | 399 kts | 299° |
| 2026-05-05 07:56 | 33.05006 | 32.50595 | 35952 ft | 399 kts | 299° |
| 2026-05-05 07:56 | 33.08163 | 32.45150 | 35948 ft | 399 kts | 300° |
| 2026-05-05 07:57 | 33.11322 | 32.39698 | 35954 ft | 400 kts | 299° |
| 2026-05-05 07:57 | 33.14487 | 32.34232 | 35951 ft | 401 kts | 299° |
| 2026-05-05 07:58 | 33.17656 | 32.28746 | 35950 ft | 402 kts | 300° |
| 2026-05-05 07:58 | 33.20811 | 32.23269 | 35974 ft | 403 kts | 300° |
| 2026-05-05 07:59 | 33.23995 | 32.17740 | 35980 ft | 404 kts | 300° |
| 2026-05-05 07:59 | 33.27178 | 32.12210 | 36018 ft | 404 kts | 300° |
| 2026-05-05 08:00 | 33.30362 | 32.06665 | 36030 ft | 405 kts | 300° |
| 2026-05-05 08:00 | 33.33554 | 32.01104 | 36023 ft | 405 kts | 300° |
| 2026-05-05 08:01 | 33.36719 | 31.95576 | 36010 ft | 405 kts | 301° |
| 2026-05-05 08:01 | 33.39899 | 31.90016 | 36010 ft | 405 kts | 301° |
| 2026-05-05 08:02 | 33.43077 | 31.84448 | 35993 ft | 405 kts | 300° |
| 2026-05-05 08:02 | 33.46252 | 31.78867 | 35991 ft | 405 kts | 301° |
| 2026-05-05 08:03 | 33.49426 | 31.73296 | 35975 ft | 405 kts | 301° |
| 2026-05-05 08:03 | 33.52600 | 31.67708 | 35956 ft | 406 kts | 301° |
| 2026-05-05 08:04 | 33.55779 | 31.62107 | 35966 ft | 406 kts | 300° |
| 2026-05-05 08:04 | 33.58955 | 31.56509 | 35991 ft | 405 kts | 300° |
| 2026-05-05 08:05 | 33.62116 | 31.50903 | 35975 ft | 406 kts | 301° |
| 2026-05-05 08:05 | 33.65286 | 31.45304 | 36016 ft | 405 kts | 300° |
| 2026-05-05 08:06 | 33.68449 | 31.39701 | 35997 ft | 405 kts | 301° |
| 2026-05-05 08:06 | 33.71604 | 31.34092 | 35985 ft | 405 kts | 301° |
| 2026-05-05 08:07 | 33.74743 | 31.28478 | 35994 ft | 404 kts | 300° |
| 2026-05-05 08:07 | 33.77904 | 31.22881 | 35986 ft | 405 kts | 301° |
| 2026-05-05 08:08 | 33.81049 | 31.17269 | 36010 ft | 404 kts | 301° |
| 2026-05-05 08:08 | 33.84169 | 31.11686 | 35993 ft | 404 kts | 301° |
| 2026-05-05 08:09 | 33.87304 | 31.06082 | 35990 ft | 404 kts | 301° |
| 2026-05-05 08:09 | 33.90434 | 31.00476 | 35970 ft | 404 kts | 301° |
| 2026-05-05 08:10 | 33.93562 | 30.94858 | 35969 ft | 403 kts | 301° |
| 2026-05-05 08:10 | 33.96157 | 30.90188 | 35993 ft | 403 kts | 301° |
| 2026-05-05 08:11 | 33.99277 | 30.84568 | 35987 ft | 403 kts | 301° |
| 2026-05-05 08:11 | 34.02401 | 30.78964 | 35965 ft | 403 kts | 302° |
| 2026-05-05 08:12 | 34.05505 | 30.73327 | 35945 ft | 403 kts | 302° |
| 2026-05-05 08:12 | 34.08601 | 30.67725 | 35949 ft | 404 kts | 302° |
| 2026-05-05 08:13 | 34.11723 | 30.62066 | 35953 ft | 406 kts | 302° |
| 2026-05-05 08:13 | 34.14859 | 30.56382 | 35959 ft | 407 kts | 302° |
| 2026-05-05 08:14 | 34.17991 | 30.50687 | 36031 ft | 407 kts | 302° |
| 2026-05-05 08:14 | 34.21123 | 30.44992 | 36040 ft | 407 kts | 302° |
| 2026-05-05 08:15 | 34.24136 | 30.39490 | 36041 ft | 407 kts | 302° |
| 2026-05-05 08:15 | 34.27246 | 30.33770 | 36042 ft | 406 kts | 302° |
| 2026-05-05 08:16 | 34.30355 | 30.28075 | 36043 ft | 406 kts | 302° |
| 2026-05-05 08:16 | 34.33499 | 30.22395 | 36045 ft | 405 kts | 302° |
| 2026-05-05 08:17 | 34.36598 | 30.16699 | 36029 ft | 405 kts | 302° |
| 2026-05-05 08:17 | 34.39687 | 30.11003 | 35999 ft | 404 kts | 302° |
| 2026-05-05 08:18 | 34.42778 | 30.05318 | 35976 ft | 404 kts | 302° |
| 2026-05-05 08:18 | 34.45908 | 29.99665 | 35953 ft | 405 kts | 306° |
| 2026-05-05 08:19 | 34.49448 | 29.94344 | 35960 ft | 406 kts | 308° |
| 2026-05-05 08:19 | 34.53056 | 29.89080 | 35992 ft | 405 kts | 308° |
| 2026-05-05 08:20 | 34.56612 | 29.83820 | 35985 ft | 406 kts | 308° |
| 2026-05-05 08:20 | 34.60178 | 29.78512 | 36032 ft | 406 kts | 308° |
| 2026-05-05 08:21 | 34.63750 | 29.73204 | 36034 ft | 406 kts | 308° |
| 2026-05-05 08:21 | 34.67326 | 29.67887 | 36027 ft | 406 kts | 308° |
| 2026-05-05 08:22 | 34.70893 | 29.62573 | 36023 ft | 406 kts | 308° |
| 2026-05-05 08:22 | 34.74457 | 29.57246 | 36030 ft | 405 kts | 308° |
| 2026-05-05 08:23 | 34.78010 | 29.51913 | 36005 ft | 406 kts | 308° |
| 2026-05-05 08:23 | 34.81476 | 29.46731 | 35983 ft | 406 kts | 308° |
| 2026-05-05 08:24 | 34.85022 | 29.41426 | 35955 ft | 406 kts | 308° |
| 2026-05-05 08:24 | 34.88607 | 29.36060 | 35959 ft | 406 kts | 309° |
| 2026-05-05 08:25 | 34.92168 | 29.30719 | 35981 ft | 405 kts | 308° |
| 2026-05-05 08:25 | 34.95709 | 29.25366 | 35966 ft | 406 kts | 308° |
| 2026-05-05 08:26 | 34.99252 | 29.20015 | 36003 ft | 405 kts | 309° |
| 2026-05-05 08:26 | 35.02804 | 29.14659 | 35988 ft | 406 kts | 309° |
| 2026-05-05 08:27 | 35.06322 | 29.09341 | 36011 ft | 405 kts | 309° |
| 2026-05-05 08:27 | 35.09858 | 29.03980 | 35999 ft | 405 kts | 309° |
| 2026-05-05 08:28 | 35.13396 | 28.98614 | 36010 ft | 405 kts | 309° |
| 2026-05-05 08:28 | 35.16920 | 28.93254 | 36009 ft | 405 kts | 309° |
| 2026-05-05 08:29 | 35.20457 | 28.87867 | 36018 ft | 405 kts | 309° |
| 2026-05-05 08:30 | 35.25769 | 28.79771 | 36031 ft | 405 kts | 309° |
| 2026-05-05 08:30 | 35.29321 | 28.74345 | 36006 ft | 406 kts | 309° |
| 2026-05-05 08:31 | 35.32842 | 28.68947 | 36009 ft | 405 kts | 309° |
| 2026-05-05 08:31 | 35.36365 | 28.63554 | 36008 ft | 405 kts | 309° |
| 2026-05-05 08:32 | 35.39889 | 28.58137 | 35990 ft | 406 kts | 309° |
| 2026-05-05 08:32 | 35.43391 | 28.52751 | 35984 ft | 406 kts | 309° |
| 2026-05-05 08:33 | 35.46913 | 28.47334 | 36000 ft | 406 kts | 309° |
| 2026-05-05 08:33 | 35.50438 | 28.41893 | 36022 ft | 406 kts | 309° |
| 2026-05-05 08:34 | 35.53972 | 28.36433 | 36057 ft | 406 kts | 309° |
| 2026-05-05 08:34 | 35.57484 | 28.31005 | 36048 ft | 406 kts | 309° |
| 2026-05-05 08:35 | 35.60987 | 28.25574 | 36041 ft | 406 kts | 310° |
| 2026-05-05 08:35 | 35.64492 | 28.20126 | 36027 ft | 405 kts | 309° |
| 2026-05-05 08:36 | 35.68001 | 28.14674 | 36027 ft | 406 kts | 310° |
| 2026-05-05 08:36 | 35.71506 | 28.09218 | 36015 ft | 406 kts | 310° |
| 2026-05-05 08:37 | 35.75006 | 28.03751 | 36002 ft | 407 kts | 310° |
| 2026-05-05 08:37 | 35.78515 | 27.98268 | 36005 ft | 408 kts | 310° |
| 2026-05-05 08:38 | 35.82032 | 27.92778 | 36053 ft | 408 kts | 309° |
| 2026-05-05 08:38 | 35.85537 | 27.87284 | 36098 ft | 408 kts | 309° |
| 2026-05-05 08:39 | 35.89079 | 27.81706 | 36089 ft | 408 kts | 309° |
| 2026-05-05 08:39 | 35.91996 | 27.77121 | 36097 ft | 408 kts | 310° |
| 2026-05-05 08:40 | 35.95574 | 27.71506 | 36090 ft | 408 kts | 310° |
| 2026-05-05 08:40 | 35.99010 | 27.65748 | 36086 ft | 408 kts | 307° |
| 2026-05-05 08:41 | 36.02367 | 27.59917 | 36074 ft | 408 kts | 307° |
| 2026-05-05 08:41 | 36.05666 | 27.54202 | 36073 ft | 407 kts | 307° |
| 2026-05-05 08:42 | 36.08949 | 27.48522 | 36054 ft | 406 kts | 307° |
| 2026-05-05 08:42 | 36.12218 | 27.42852 | 36053 ft | 404 kts | 308° |
| 2026-05-05 08:43 | 36.15479 | 27.37188 | 36029 ft | 403 kts | 307° |
| 2026-05-05 08:43 | 36.18726 | 27.31531 | 36016 ft | 403 kts | 307° |
| 2026-05-05 08:44 | 36.21965 | 27.25873 | 36004 ft | 403 kts | 307° |
| 2026-05-05 08:44 | 36.25194 | 27.20234 | 36007 ft | 404 kts | 307° |
| 2026-05-05 08:45 | 36.28446 | 27.14536 | 36011 ft | 405 kts | 307° |
| 2026-05-05 08:45 | 36.31714 | 27.08817 | 36016 ft | 407 kts | 307° |
| 2026-05-05 08:46 | 36.34982 | 27.03074 | 36030 ft | 408 kts | 307° |
| 2026-05-05 08:46 | 36.38285 | 26.97260 | 36040 ft | 410 kts | 307° |
| 2026-05-05 08:47 | 36.41549 | 26.91510 | 36102 ft | 410 kts | 307° |
| 2026-05-05 08:47 | 36.44832 | 26.85719 | 36116 ft | 410 kts | 307° |
| 2026-05-05 08:48 | 36.48130 | 26.79881 | 36119 ft | 409 kts | 307° |
| 2026-05-05 08:48 | 36.51374 | 26.74132 | 36117 ft | 408 kts | 307° |
| 2026-05-05 08:49 | 36.54632 | 26.68362 | 36106 ft | 406 kts | 307° |
| 2026-05-05 08:49 | 36.57887 | 26.62576 | 36088 ft | 404 kts | 307° |
| 2026-05-05 08:50 | 36.61099 | 26.56859 | 36071 ft | 402 kts | 307° |
| 2026-05-05 08:50 | 36.64276 | 26.51190 | 36047 ft | 401 kts | 306° |
| 2026-05-05 08:51 | 36.67474 | 26.45476 | 36037 ft | 401 kts | 307° |
| 2026-05-05 08:51 | 36.70669 | 26.39767 | 36038 ft | 403 kts | 306° |
| 2026-05-05 08:52 | 36.73872 | 26.34024 | 36046 ft | 404 kts | 307° |
| 2026-05-05 08:52 | 36.77111 | 26.28225 | 36045 ft | 406 kts | 306° |
| 2026-05-05 08:53 | 36.80322 | 26.22448 | 36052 ft | 408 kts | 306° |
| 2026-05-05 08:53 | 36.83563 | 26.16598 | 36064 ft | 409 kts | 306° |
| 2026-05-05 08:54 | 36.86801 | 26.10749 | 36136 ft | 409 kts | 306° |
| 2026-05-05 08:54 | 36.90045 | 26.04896 | 36140 ft | 410 kts | 307° |
| 2026-05-05 08:55 | 36.93290 | 25.99023 | 36134 ft | 410 kts | 307° |
| 2026-05-05 08:55 | 36.96513 | 25.93158 | 36144 ft | 409 kts | 306° |
| 2026-05-05 08:56 | 36.99757 | 25.87277 | 36150 ft | 407 kts | 306° |
| 2026-05-05 08:56 | 37.02531 | 25.82232 | 36143 ft | 405 kts | 306° |
| 2026-05-05 08:57 | 37.05827 | 25.76230 | 36000 ft | 401 kts | 306° |
| 2026-05-05 08:57 | 37.07445 | 25.73284 | 35711 ft | 401 kts | 306° |
| 2026-05-05 08:57 | 37.09021 | 25.70396 | 35474 ft | 402 kts | 306° |
| 2026-05-05 08:57 | 37.10644 | 25.67420 | 35238 ft | 403 kts | 306° |
| 2026-05-05 08:58 | 37.12209 | 25.64549 | 35005 ft | 405 kts | 306° |
| 2026-05-05 08:58 | 37.13824 | 25.61592 | 34760 ft | 406 kts | 306° |
| 2026-05-05 08:58 | 37.15395 | 25.58709 | 34355 ft | 406 kts | 306° |
| 2026-05-05 08:58 | 37.16992 | 25.55778 | 33777 ft | 407 kts | 306° |
| 2026-05-05 08:59 | 37.18595 | 25.52838 | 33199 ft | 407 kts | 306° |
| 2026-05-05 08:59 | 37.20233 | 25.49832 | 32608 ft | 408 kts | 306° |
| 2026-05-05 08:59 | 37.21852 | 25.46858 | 32015 ft | 408 kts | 306° |
| 2026-05-05 08:59 | 37.23453 | 25.43907 | 31462 ft | 407 kts | 306° |
| 2026-05-05 09:00 | 37.25043 | 25.40968 | 30923 ft | 406 kts | 306° |
| 2026-05-05 09:00 | 37.26660 | 25.37957 | 30409 ft | 405 kts | 304° |
| 2026-05-05 09:00 | 37.28002 | 25.34791 | 29854 ft | 406 kts | 295° |
| 2026-05-05 09:00 | 37.28981 | 25.31466 | 29331 ft | 406 kts | 291° |
| 2026-05-05 09:01 | 37.29859 | 25.28104 | 28813 ft | 405 kts | 290° |
| 2026-05-05 09:01 | 37.30718 | 25.24690 | 28280 ft | 403 kts | 290° |
| 2026-05-05 09:01 | 37.31586 | 25.21305 | 27764 ft | 401 kts | 291° |
| 2026-05-05 09:01 | 37.32479 | 25.17946 | 27226 ft | 399 kts | 291° |
| 2026-05-05 09:02 | 37.33375 | 25.14651 | 26687 ft | 397 kts | 291° |
| 2026-05-05 09:02 | 37.34268 | 25.11367 | 26177 ft | 395 kts | 291° |
| 2026-05-05 09:02 | 37.34876 | 25.09108 | 25832 ft | 394 kts | 291° |
| 2026-05-05 09:02 | 37.35744 | 25.05859 | 25329 ft | 392 kts | 291° |
| 2026-05-05 09:03 | 37.36605 | 25.02612 | 24807 ft | 390 kts | 291° |
| 2026-05-05 09:03 | 37.37463 | 24.99391 | 24294 ft | 388 kts | 291° |
| 2026-05-05 09:03 | 37.38314 | 24.96183 | 23791 ft | 386 kts | 291° |
| 2026-05-05 09:03 | 37.39196 | 24.92849 | 23260 ft | 384 kts | 291° |
| 2026-05-05 09:04 | 37.40032 | 24.89671 | 22779 ft | 381 kts | 291° |
| 2026-05-05 09:04 | 37.40880 | 24.86475 | 22261 ft | 379 kts | 291° |
| 2026-05-05 09:04 | 37.41724 | 24.83307 | 21742 ft | 378 kts | 291° |
| 2026-05-05 09:04 | 37.42553 | 24.80187 | 21261 ft | 375 kts | 291° |
| 2026-05-05 09:05 | 37.43377 | 24.77080 | 20776 ft | 373 kts | 291° |
| 2026-05-05 09:05 | 37.44192 | 24.73987 | 20324 ft | 371 kts | 291° |
| 2026-05-05 09:05 | 37.45003 | 24.70905 | 20146 ft | 371 kts | 291° |
| 2026-05-05 09:05 | 37.45812 | 24.67823 | 20095 ft | 369 kts | 291° |
| 2026-05-05 09:06 | 37.46611 | 24.64776 | 19782 ft | 366 kts | 291° |
| 2026-05-05 09:06 | 37.47412 | 24.61725 | 19363 ft | 367 kts | 291° |
| 2026-05-05 09:06 | 37.48213 | 24.58662 | 18944 ft | 365 kts | 291° |
| 2026-05-05 09:06 | 37.49002 | 24.55645 | 18537 ft | 363 kts | 291° |
| 2026-05-05 09:07 | 37.49789 | 24.52641 | 18125 ft | 361 kts | 291° |
| 2026-05-05 09:07 | 37.50573 | 24.49638 | 17686 ft | 359 kts | 291° |
| 2026-05-05 09:07 | 37.51351 | 24.46656 | 17054 ft | 359 kts | 291° |
| 2026-05-05 09:07 | 37.52135 | 24.43662 | 16306 ft | 362 kts | 291° |
| 2026-05-05 09:08 | 37.52926 | 24.40632 | 15540 ft | 365 kts | 291° |
| 2026-05-05 09:08 | 37.53737 | 24.37519 | 14790 ft | 362 kts | 291° |
| 2026-05-05 09:08 | 37.54533 | 24.34442 | 14053 ft | 357 kts | 291° |
| 2026-05-05 09:08 | 37.55288 | 24.31490 | 13406 ft | 350 kts | 290° |
| 2026-05-05 09:09 | 37.55693 | 24.28423 | 12991 ft | 342 kts | 275° |
| 2026-05-05 09:09 | 37.55634 | 24.25452 | 12740 ft | 328 kts | 271° |
| 2026-05-05 09:09 | 37.55470 | 24.22649 | 12517 ft | 313 kts | 269° |
| 2026-05-05 09:09 | 37.55293 | 24.19947 | 12151 ft | 305 kts | 270° |
| 2026-05-05 09:10 | 37.55140 | 24.17296 | 11664 ft | 301 kts | 271° |
| 2026-05-05 09:10 | 37.55263 | 24.14702 | 11085 ft | 294 kts | 287° |
| 2026-05-05 09:10 | 37.55889 | 24.12269 | 10444 ft | 291 kts | 299° |
| 2026-05-05 09:10 | 37.56832 | 24.10004 | 9845 ft | 290 kts | 303° |
| 2026-05-05 09:11 | 37.57861 | 24.07792 | 9362 ft | 286 kts | 305° |
| 2026-05-05 09:11 | 37.58878 | 24.05675 | 8983 ft | 279 kts | 305° |
| 2026-05-05 09:11 | 37.59878 | 24.03609 | 8615 ft | 272 kts | 305° |
| 2026-05-05 09:11 | 37.60883 | 24.01542 | 8239 ft | 266 kts | 305° |
| 2026-05-05 09:12 | 37.61847 | 23.99574 | 7872 ft | 261 kts | 305° |
| 2026-05-05 09:12 | 37.62793 | 23.97640 | 7502 ft | 257 kts | 302° |
| 2026-05-05 09:12 | 37.63365 | 23.95517 | 7137 ft | 256 kts | 284° |
| 2026-05-05 09:12 | 37.63628 | 23.93323 | 6870 ft | 249 kts | 280° |
| 2026-05-05 09:13 | 37.63827 | 23.91175 | 6579 ft | 244 kts | 279° |
| 2026-05-05 09:13 | 37.64010 | 23.89072 | 6288 ft | 238 kts | 279° |
| 2026-05-05 09:13 | 37.64211 | 23.87011 | 6002 ft | 235 kts | 284° |
| 2026-05-05 09:13 | 37.64863 | 23.85187 | 5692 ft | 225 kts | 311° |
| 2026-05-05 09:14 | 37.66092 | 23.84012 | 5392 ft | 218 kts | 339° |
| 2026-05-05 09:14 | 37.67557 | 23.83595 | 5071 ft | 215 kts | 352° |
| 2026-05-05 09:14 | 37.69032 | 23.83395 | 4738 ft | 213 kts | 354° |
| 2026-05-05 09:14 | 37.70496 | 23.83241 | 4444 ft | 209 kts | 354° |
| 2026-05-05 09:15 | 37.71447 | 23.83150 | 4278 ft | 205 kts | 354° |
| 2026-05-05 09:15 | 37.72860 | 23.83019 | 4098 ft | 195 kts | 354° |
| 2026-05-05 09:15 | 37.74182 | 23.82903 | 3874 ft | 186 kts | 354° |
| 2026-05-05 09:15 | 37.75575 | 23.82784 | 3610 ft | 181 kts | 354° |
| 2026-05-05 09:16 | 37.76802 | 23.82683 | 3373 ft | 178 kts | 354° |
| 2026-05-05 09:16 | 37.78036 | 23.82587 | 3134 ft | 176 kts | 354° |
| 2026-05-05 09:16 | 37.79258 | 23.82495 | 2920 ft | 175 kts | 354° |
| 2026-05-05 09:16 | 37.80466 | 23.82406 | 2746 ft | 172 kts | 354° |
| 2026-05-05 09:17 | 37.81642 | 23.82398 | 2578 ft | 167 kts | 9° |
| 2026-05-05 09:17 | 37.82685 | 23.82951 | 2582 ft | 156 kts | 29° |
| 2026-05-05 09:17 | 37.83580 | 23.83733 | 2451 ft | 153 kts | 34° |
| 2026-05-05 09:17 | 37.84428 | 23.84539 | 2264 ft | 152 kts | 35° |
| 2026-05-05 09:18 | 37.85285 | 23.85359 | 2074 ft | 151 kts | 35° |
| 2026-05-05 09:18 | 37.86117 | 23.86151 | 1874 ft | 148 kts | 36° |
| 2026-05-05 09:18 | 37.86908 | 23.86900 | 1692 ft | 137 kts | 36° |
| 2026-05-05 09:18 | 37.87671 | 23.87626 | 1509 ft | 137 kts | 36° |
| 2026-05-05 09:19 | 37.88433 | 23.88351 | 1322 ft | 137 kts | 36° |
| 2026-05-05 09:19 | 37.89195 | 23.89074 | 1138 ft | 137 kts | 35° |
| 2026-05-05 09:19 | 37.89955 | 23.89796 | 948 ft | 136 kts | 36° |
| 2026-05-05 09:19 | 37.90694 | 23.90505 | 695 ft | 132 kts | 37° |
| 2026-05-05 09:20 | 37.91434 | 23.91221 | 501 ft | 134 kts | 36° |
| 2026-05-05 09:20 | 37.92174 | 23.91916 | 352 ft | 129 kts | 36° |
| 2026-05-05 09:20 | 37.92849 | 23.92558 | 322 ft | 100 kts | 35° |
| 2026-05-05 09:20 | 37.93273 | 23.92952 | 322 ft | 56 kts | 34° |
| 2026-05-05 09:21 | 37.93536 | 23.93236 | 322 ft | 48 kts | 54° |
| 2026-05-05 09:21 | 37.93654 | 23.93529 | 322 ft | 18 kts | 66° |
| 2026-05-05 09:21 | 37.93676 | 23.93601 | 322 ft | 6 kts | 83° |
| 2026-05-05 09:21 | 37.93668 | 23.93633 | 322 ft | 2 kts | 112° |
| 2026-05-05 09:22 | 37.93663 | 23.93647 | 322 ft | 1 kts | 113° |
| 2026-05-05 09:22 | 37.93657 | 23.93662 | 322 ft | 3 kts | 121° |
| 2026-05-05 09:22 | 37.93641 | 23.93695 | 322 ft | 5 kts | 123° |
| 2026-05-05 09:22 | 37.93609 | 23.93700 | 322 ft | 6 kts | 203° |
| 2026-05-05 09:23 | 37.93569 | 23.93661 | 322 ft | 9 kts | 220° |
| 2026-05-05 09:23 | 37.93521 | 23.93611 | 322 ft | 8 kts | 219° |
| 2026-05-05 09:23 | 37.93469 | 23.93564 | 322 ft | 11 kts | 214° |
| 2026-05-05 09:23 | 37.93403 | 23.93509 | 322 ft | 10 kts | 191° |
| 2026-05-05 09:24 | 37.93350 | 23.93570 | 322 ft | 12 kts | 128° |
| 2026-05-05 09:24 | 37.93294 | 23.93662 | 322 ft | 15 kts | 127° |
| 2026-05-05 09:24 | 37.93229 | 23.93775 | 322 ft | 17 kts | 126° |
| 2026-05-05 09:24 | 37.93153 | 23.93902 | 322 ft | 18 kts | 128° |
| 2026-05-05 09:25 | 37.93074 | 23.94034 | 322 ft | 17 kts | 127° |
| 2026-05-05 09:25 | 37.93058 | 23.94061 | 322 ft | 1 kts | 128° |
| 2026-05-05 09:25 | 37.93048 | 23.94077 | 322 ft | 4 kts | 128° |
| 2026-05-05 09:25 | 37.93027 | 23.94111 | 322 ft | 6 kts | 128° |
| 2026-05-05 09:26 | 37.92996 | 23.94160 | 322 ft | 9 kts | 128° |
| 2026-05-05 09:26 | 37.92955 | 23.94231 | 322 ft | 7 kts | 125° |
| 2026-05-05 09:26 | 37.92945 | 23.94259 | 322 ft | 4 kts | 86° |
| 2026-05-05 09:26 | 37.92959 | 23.94271 | 322 ft | 4 kts | 21° |
| 2026-05-05 09:27 | 37.92975 | 23.94283 | 322 ft | 1 kts | 39° |
| 2026-05-05 09:27 | 37.92990 | 23.94298 | 322 ft | 4 kts | 37° |
| 2026-05-05 09:27 | 37.93010 | 23.94317 | 322 ft | 4 kts | 37° |
| 2026-05-05 09:27 | 37.93019 | 23.94326 | 322 ft | 0 kts | 37° |